sensor_id;sensor_type;location;lat;lon;timestamp;temperature;humidity
68804;SHT31;55787;52.678;13.314;2024-01-30T00:01:02;0.29;92.08
68804;SHT31;55787;52.678;13.314;2024-01-30T00:03:29;0.28;92.16
68804;SHT31;55787;52.678;13.314;2024-01-30T00:05:56;0.28;92.29
68804;SHT31;55787;52.678;13.314;2024-01-30T00:08:26;0.29;92.26
68804;SHT31;55787;52.678;13.314;2024-01-30T00:10:52;0.28;92.39
68804;SHT31;55787;52.678;13.314;2024-01-30T00:13:19;0.29;92.57
68804;SHT31;55787;52.678;13.314;2024-01-30T00:15:46;0.25;92.49
68804;SHT31;55787;52.678;13.314;2024-01-30T00:18:13;0.25;92.60
68804;SHT31;55787;52.678;13.314;2024-01-30T00:20:40;0.24;92.73
68804;SHT31;55787;52.678;13.314;2024-01-30T00:23:06;0.28;92.84
68804;SHT31;55787;52.678;13.314;2024-01-30T00:25:33;0.28;92.59
68804;SHT31;55787;52.678;13.314;2024-01-30T00:28:00;0.26;92.57
68804;SHT31;55787;52.678;13.314;2024-01-30T00:30:26;0.25;92.53
68804;SHT31;55787;52.678;13.314;2024-01-30T00:32:54;0.19;92.49
68804;SHT31;55787;52.678;13.314;2024-01-30T00:35:20;0.19;92.43
68804;SHT31;55787;52.678;13.314;2024-01-30T00:37:48;0.15;92.57
68804;SHT31;55787;52.678;13.314;2024-01-30T00:40:15;0.17;92.70
68804;SHT31;55787;52.678;13.314;2024-01-30T00:42:43;0.17;92.69
68804;SHT31;55787;52.678;13.314;2024-01-30T00:45:14;0.15;92.66
68804;SHT31;55787;52.678;13.314;2024-01-30T00:47:41;0.18;92.84
68804;SHT31;55787;52.678;13.314;2024-01-30T00:50:07;0.17;92.68
68804;SHT31;55787;52.678;13.314;2024-01-30T00:52:34;0.12;92.74
68804;SHT31;55787;52.678;13.314;2024-01-30T00:55:01;0.07;92.71
68804;SHT31;55787;52.678;13.314;2024-01-30T00:57:29;0.09;92.75
68804;SHT31;55787;52.678;13.314;2024-01-30T00:59:55;0.07;92.79
68804;SHT31;55787;52.678;13.314;2024-01-30T01:02:22;0.05;92.80
68804;SHT31;55787;52.678;13.314;2024-01-30T01:04:48;0.02;92.75
68804;SHT31;55787;52.678;13.314;2024-01-30T01:07:15;0.01;92.72
68804;SHT31;55787;52.678;13.314;2024-01-30T01:09:41;0.01;92.75
68804;SHT31;55787;52.678;13.314;2024-01-30T01:12:08;-0.03;92.77
68804;SHT31;55787;52.678;13.314;2024-01-30T01:14:34;-0.05;92.83
68804;SHT31;55787;52.678;13.314;2024-01-30T01:17:02;-0.07;92.69
68804;SHT31;55787;52.678;13.314;2024-01-30T01:19:29;-0.07;92.72
68804;SHT31;55787;52.678;13.314;2024-01-30T01:21:56;-0.10;92.87
68804;SHT31;55787;52.678;13.314;2024-01-30T01:24:23;-0.07;92.94
68804;SHT31;55787;52.678;13.314;2024-01-30T01:26:50;-0.12;93.00
68804;SHT31;55787;52.678;13.314;2024-01-30T01:29:17;-0.13;92.97
68804;SHT31;55787;52.678;13.314;2024-01-30T01:31:44;-0.16;92.95
68804;SHT31;55787;52.678;13.314;2024-01-30T01:34:11;-0.20;92.96
68804;SHT31;55787;52.678;13.314;2024-01-30T01:36:38;-0.23;93.06
68804;SHT31;55787;52.678;13.314;2024-01-30T01:39:05;-0.21;93.15
68804;SHT31;55787;52.678;13.314;2024-01-30T01:41:32;-0.24;93.35
68804;SHT31;55787;52.678;13.314;2024-01-30T01:43:59;-0.26;93.26
68804;SHT31;55787;52.678;13.314;2024-01-30T01:46:27;-0.30;93.21
68804;SHT31;55787;52.678;13.314;2024-01-30T01:48:55;-0.30;93.39
68804;SHT31;55787;52.678;13.314;2024-01-30T01:51:24;-0.30;93.50
68804;SHT31;55787;52.678;13.314;2024-01-30T01:53:55;-0.34;93.40
68804;SHT31;55787;52.678;13.314;2024-01-30T01:56:22;-0.36;93.71
68804;SHT31;55787;52.678;13.314;2024-01-30T01:58:51;-0.34;93.71
68804;SHT31;55787;52.678;13.314;2024-01-30T02:01:20;-0.36;93.58
68804;SHT31;55787;52.678;13.314;2024-01-30T02:03:47;-0.34;93.65
68804;SHT31;55787;52.678;13.314;2024-01-30T02:06:14;-0.36;93.80
68804;SHT31;55787;52.678;13.314;2024-01-30T02:08:41;-0.33;93.89
68804;SHT31;55787;52.678;13.314;2024-01-30T02:11:08;-0.34;93.67
68804;SHT31;55787;52.678;13.314;2024-01-30T02:13:36;-0.33;93.89
68804;SHT31;55787;52.678;13.314;2024-01-30T02:16:03;-0.31;93.87
68804;SHT31;55787;52.678;13.314;2024-01-30T02:18:30;-0.34;93.82
68804;SHT31;55787;52.678;13.314;2024-01-30T02:20:58;-0.31;93.93
68804;SHT31;55787;52.678;13.314;2024-01-30T02:23:28;-0.24;94.08
68804;SHT31;55787;52.678;13.314;2024-01-30T02:25:54;-0.23;94.00
68804;SHT31;55787;52.678;13.314;2024-01-30T02:28:21;-0.21;93.69
68804;SHT31;55787;52.678;13.314;2024-01-30T02:30:48;-0.24;93.71
68804;SHT31;55787;52.678;13.314;2024-01-30T02:33:14;-0.23;93.39
68804;SHT31;55787;52.678;13.314;2024-01-30T02:35:41;-0.26;93.48
68804;SHT31;55787;52.678;13.314;2024-01-30T02:38:07;-0.26;93.51
68804;SHT31;55787;52.678;13.314;2024-01-30T02:40:34;-0.30;93.42
68804;SHT31;55787;52.678;13.314;2024-01-30T02:43:02;-0.21;93.77
68804;SHT31;55787;52.678;13.314;2024-01-30T02:45:29;-0.19;93.53
68804;SHT31;55787;52.678;13.314;2024-01-30T02:47:56;-0.21;93.67
68804;SHT31;55787;52.678;13.314;2024-01-30T02:50:22;-0.23;93.63
68804;SHT31;55787;52.678;13.314;2024-01-30T02:52:49;-0.27;93.52
68804;SHT31;55787;52.678;13.314;2024-01-30T02:55:16;-0.31;93.45
68804;SHT31;55787;52.678;13.314;2024-01-30T02:57:45;-0.31;93.69
68804;SHT31;55787;52.678;13.314;2024-01-30T03:00:12;-0.33;93.55
68804;SHT31;55787;52.678;13.314;2024-01-30T03:02:39;-0.30;93.53
68804;SHT31;55787;52.678;13.314;2024-01-30T03:05:08;-0.37;93.42
68804;SHT31;55787;52.678;13.314;2024-01-30T03:07:35;-0.37;93.52
68804;SHT31;55787;52.678;13.314;2024-01-30T03:10:01;-0.40;93.58
68804;SHT31;55787;52.678;13.314;2024-01-30T03:12:28;-0.41;93.74
68804;SHT31;55787;52.678;13.314;2024-01-30T03:14:54;-0.41;93.66
68804;SHT31;55787;52.678;13.314;2024-01-30T03:17:21;-0.50;93.64
68804;SHT31;55787;52.678;13.314;2024-01-30T03:19:48;-0.53;93.60
68804;SHT31;55787;52.678;13.314;2024-01-30T03:22:14;-0.51;93.76
68804;SHT31;55787;52.678;13.314;2024-01-30T03:24:41;-0.54;93.78
68804;SHT31;55787;52.678;13.314;2024-01-30T03:27:08;-0.56;93.77
68804;SHT31;55787;52.678;13.314;2024-01-30T03:29:35;-0.58;93.76
68804;SHT31;55787;52.678;13.314;2024-01-30T03:32:02;-0.61;93.94
68804;SHT31;55787;52.678;13.314;2024-01-30T03:34:30;-0.62;93.94
68804;SHT31;55787;52.678;13.314;2024-01-30T03:36:57;-0.61;94.11
68804;SHT31;55787;52.678;13.314;2024-01-30T03:39:24;-0.62;94.12
68804;SHT31;55787;52.678;13.314;2024-01-30T03:41:51;-0.68;94.05
68804;SHT31;55787;52.678;13.314;2024-01-30T03:44:17;-0.67;94.46
68804;SHT31;55787;52.678;13.314;2024-01-30T03:46:44;-0.68;94.52
68804;SHT31;55787;52.678;13.314;2024-01-30T03:49:10;-0.70;94.40
68804;SHT31;55787;52.678;13.314;2024-01-30T03:51:37;-0.71;94.45
68804;SHT31;55787;52.678;13.314;2024-01-30T03:54:04;-0.74;94.58
68804;SHT31;55787;52.678;13.314;2024-01-30T03:56:30;-0.72;94.50
68804;SHT31;55787;52.678;13.314;2024-01-30T03:58:57;-0.77;94.62
68804;SHT31;55787;52.678;13.314;2024-01-30T04:01:25;-0.74;94.63
68804;SHT31;55787;52.678;13.314;2024-01-30T04:03:51;-0.77;94.62
68804;SHT31;55787;52.678;13.314;2024-01-30T04:06:18;-0.77;94.61
68804;SHT31;55787;52.678;13.314;2024-01-30T04:08:45;-0.78;94.60
68804;SHT31;55787;52.678;13.314;2024-01-30T04:11:11;-0.78;94.78
68804;SHT31;55787;52.678;13.314;2024-01-30T04:13:38;-0.81;94.75
68804;SHT31;55787;52.678;13.314;2024-01-30T04:16:05;-0.81;94.80
68804;SHT31;55787;52.678;13.314;2024-01-30T04:18:32;-0.82;94.81
68804;SHT31;55787;52.678;13.314;2024-01-30T04:21:00;-0.82;94.77
68804;SHT31;55787;52.678;13.314;2024-01-30T04:23:26;-0.84;94.97
68804;SHT31;55787;52.678;13.314;2024-01-30T04:25:53;-0.82;94.98
68804;SHT31;55787;52.678;13.314;2024-01-30T04:28:19;-0.82;95.00
68804;SHT31;55787;52.678;13.314;2024-01-30T04:30:46;-0.82;95.05
68804;SHT31;55787;52.678;13.314;2024-01-30T04:33:12;-0.82;95.12
68804;SHT31;55787;52.678;13.314;2024-01-30T04:35:39;-0.85;95.02
68804;SHT31;55787;52.678;13.314;2024-01-30T04:38:06;-0.81;95.17
68804;SHT31;55787;52.678;13.314;2024-01-30T04:40:32;-0.82;95.16
68804;SHT31;55787;52.678;13.314;2024-01-30T04:42:59;-0.84;95.48
68804;SHT31;55787;52.678;13.314;2024-01-30T04:45:26;-0.80;95.31
68804;SHT31;55787;52.678;13.314;2024-01-30T04:47:53;-0.80;95.17
68804;SHT31;55787;52.678;13.314;2024-01-30T04:50:19;-0.81;95.27
68804;SHT31;55787;52.678;13.314;2024-01-30T04:52:46;-0.82;95.25
68804;SHT31;55787;52.678;13.314;2024-01-30T04:55:12;-0.82;95.36
68804;SHT31;55787;52.678;13.314;2024-01-30T04:57:39;-0.80;95.40
68804;SHT31;55787;52.678;13.314;2024-01-30T05:00:06;-0.75;95.38
68804;SHT31;55787;52.678;13.314;2024-01-30T05:02:33;-0.71;95.57
68804;SHT31;55787;52.678;13.314;2024-01-30T05:05:00;-0.70;95.39
68804;SHT31;55787;52.678;13.314;2024-01-30T05:07:26;-0.71;95.46
68804;SHT31;55787;52.678;13.314;2024-01-30T05:09:53;-0.67;95.40
68804;SHT31;55787;52.678;13.314;2024-01-30T05:12:24;-0.64;95.43
68804;SHT31;55787;52.678;13.314;2024-01-30T05:14:51;-0.57;95.53
68804;SHT31;55787;52.678;13.314;2024-01-30T05:17:18;-0.61;95.29
68804;SHT31;55787;52.678;13.314;2024-01-30T05:19:44;-0.60;95.33
68804;SHT31;55787;52.678;13.314;2024-01-30T05:22:11;-0.53;95.40
68804;SHT31;55787;52.678;13.314;2024-01-30T05:24:42;-0.54;95.05
68804;SHT31;55787;52.678;13.314;2024-01-30T05:27:09;-0.60;95.14
68804;SHT31;55787;52.678;13.314;2024-01-30T05:29:35;-0.62;95.01
68804;SHT31;55787;52.678;13.314;2024-01-30T05:32:03;-0.65;95.01
68804;SHT31;55787;52.678;13.314;2024-01-30T05:34:29;-0.70;95.10
68804;SHT31;55787;52.678;13.314;2024-01-30T05:36:56;-0.71;94.97
68804;SHT31;55787;52.678;13.314;2024-01-30T05:39:23;-0.72;95.04
68804;SHT31;55787;52.678;13.314;2024-01-30T05:41:49;-0.74;95.18
68804;SHT31;55787;52.678;13.314;2024-01-30T05:44:16;-0.78;95.12
68804;SHT31;55787;52.678;13.314;2024-01-30T05:46:43;-0.82;95.03
68804;SHT31;55787;52.678;13.314;2024-01-30T05:49:09;-0.87;95.25
68804;SHT31;55787;52.678;13.314;2024-01-30T05:51:36;-0.84;95.22
68804;SHT31;55787;52.678;13.314;2024-01-30T05:54:02;-0.88;95.41
68804;SHT31;55787;52.678;13.314;2024-01-30T05:56:30;-0.89;95.45
68804;SHT31;55787;52.678;13.314;2024-01-30T05:58:56;-0.93;95.43
68804;SHT31;55787;52.678;13.314;2024-01-30T06:01:23;-0.93;95.56
68804;SHT31;55787;52.678;13.314;2024-01-30T06:03:49;-0.96;95.53
68804;SHT31;55787;52.678;13.314;2024-01-30T06:06:16;-0.98;95.58
68804;SHT31;55787;52.678;13.314;2024-01-30T06:08:43;-0.96;95.74
68804;SHT31;55787;52.678;13.314;2024-01-30T06:11:11;-0.98;95.75
68804;SHT31;55787;52.678;13.314;2024-01-30T06:13:38;-0.95;95.86
68804;SHT31;55787;52.678;13.314;2024-01-30T06:16:05;-0.92;95.87
68804;SHT31;55787;52.678;13.314;2024-01-30T06:18:35;-0.91;95.99
68804;SHT31;55787;52.678;13.314;2024-01-30T06:21:01;-0.89;95.86
68804;SHT31;55787;52.678;13.314;2024-01-30T06:23:28;-0.85;96.01
68804;SHT31;55787;52.678;13.314;2024-01-30T06:25:54;-0.85;96.03
68804;SHT31;55787;52.678;13.314;2024-01-30T06:28:21;-0.88;95.97
68804;SHT31;55787;52.678;13.314;2024-01-30T06:30:48;-0.87;95.93
68804;SHT31;55787;52.678;13.314;2024-01-30T06:33:15;-0.84;96.07
68804;SHT31;55787;52.678;13.314;2024-01-30T06:35:42;-0.81;96.20
68804;SHT31;55787;52.678;13.314;2024-01-30T06:38:10;-0.77;96.10
68804;SHT31;55787;52.678;13.314;2024-01-30T06:40:37;-0.75;96.14
68804;SHT31;55787;52.678;13.314;2024-01-30T06:43:04;-0.78;96.14
68804;SHT31;55787;52.678;13.314;2024-01-30T06:45:31;-0.77;96.25
68804;SHT31;55787;52.678;13.314;2024-01-30T06:47:58;-0.74;96.25
68804;SHT31;55787;52.678;13.314;2024-01-30T06:50:24;-0.71;96.43
68804;SHT31;55787;52.678;13.314;2024-01-30T06:52:51;-0.71;96.15
68804;SHT31;55787;52.678;13.314;2024-01-30T06:55:20;-0.71;96.31
68804;SHT31;55787;52.678;13.314;2024-01-30T06:57:47;-0.68;96.17
68804;SHT31;55787;52.678;13.314;2024-01-30T07:00:18;-0.64;96.38
68804;SHT31;55787;52.678;13.314;2024-01-30T07:02:46;-0.58;96.46
68804;SHT31;55787;52.678;13.314;2024-01-30T07:05:12;-0.54;96.13
68804;SHT31;55787;52.678;13.314;2024-01-30T07:07:40;-0.54;96.13
68804;SHT31;55787;52.678;13.314;2024-01-30T07:10:07;-0.50;95.92
68804;SHT31;55787;52.678;13.314;2024-01-30T07:12:34;-0.47;96.08
68804;SHT31;55787;52.678;13.314;2024-01-30T07:15:01;-0.45;95.92
68804;SHT31;55787;52.678;13.314;2024-01-30T07:17:29;-0.37;96.00
68804;SHT31;55787;52.678;13.314;2024-01-30T07:19:55;-0.27;96.06
68804;SHT31;55787;52.678;13.314;2024-01-30T07:22:22;-0.26;95.88
68804;SHT31;55787;52.678;13.314;2024-01-30T07:24:49;-0.20;95.80
68804;SHT31;55787;52.678;13.314;2024-01-30T07:27:17;-0.14;95.71
68804;SHT31;55787;52.678;13.314;2024-01-30T07:29:44;-0.09;95.71
68804;SHT31;55787;52.678;13.314;2024-01-30T07:32:11;0.01;95.51
68804;SHT31;55787;52.678;13.314;2024-01-30T07:34:37;0.11;95.19
68804;SHT31;55787;52.678;13.314;2024-01-30T07:37:18;0.21;95.15
68804;SHT31;55787;52.678;13.314;2024-01-30T07:39:47;0.26;94.94
68804;SHT31;55787;52.678;13.314;2024-01-30T07:42:13;0.33;94.81
68804;SHT31;55787;52.678;13.314;2024-01-30T07:44:40;0.39;94.74
68804;SHT31;55787;52.678;13.314;2024-01-30T07:47:06;0.45;94.46
68804;SHT31;55787;52.678;13.314;2024-01-30T07:49:34;0.50;94.46
68804;SHT31;55787;52.678;13.314;2024-01-30T07:52:01;0.58;94.36
68804;SHT31;55787;52.678;13.314;2024-01-30T07:54:30;0.66;94.21
68804;SHT31;55787;52.678;13.314;2024-01-30T07:57:00;0.73;93.89
68804;SHT31;55787;52.678;13.314;2024-01-30T07:59:27;0.77;94.04
68804;SHT31;55787;52.678;13.314;2024-01-30T08:01:54;0.89;93.52
68804;SHT31;55787;52.678;13.314;2024-01-30T08:04:20;0.99;93.38
68804;SHT31;55787;52.678;13.314;2024-01-30T08:06:47;1.07;93.11
68804;SHT31;55787;52.678;13.314;2024-01-30T08:09:14;1.11;92.70
68804;SHT31;55787;52.678;13.314;2024-01-30T08:11:41;1.20;92.38
68804;SHT31;55787;52.678;13.314;2024-01-30T08:14:07;1.30;92.13
68804;SHT31;55787;52.678;13.314;2024-01-30T08:16:34;1.35;92.17
68804;SHT31;55787;52.678;13.314;2024-01-30T08:19:01;1.45;92.25
68804;SHT31;55787;52.678;13.314;2024-01-30T08:21:28;1.54;91.78
68804;SHT31;55787;52.678;13.314;2024-01-30T08:23:55;1.62;91.60
68804;SHT31;55787;52.678;13.314;2024-01-30T08:26:21;1.68;91.10
68804;SHT31;55787;52.678;13.314;2024-01-30T08:28:48;1.75;90.63
68804;SHT31;55787;52.678;13.314;2024-01-30T08:31:14;1.83;90.36
68804;SHT31;55787;52.678;13.314;2024-01-30T08:33:41;1.90;90.38
68804;SHT31;55787;52.678;13.314;2024-01-30T08:36:09;2.06;90.16
68804;SHT31;55787;52.678;13.314;2024-01-30T08:38:36;2.20;90.33
68804;SHT31;55787;52.678;13.314;2024-01-30T08:41:03;2.29;89.99
68804;SHT31;55787;52.678;13.314;2024-01-30T08:43:29;2.38;89.48
68804;SHT31;55787;52.678;13.314;2024-01-30T08:45:59;2.50;89.02
68804;SHT31;55787;52.678;13.314;2024-01-30T08:48:26;2.61;88.57
68804;SHT31;55787;52.678;13.314;2024-01-30T08:50:53;2.75;87.47
68804;SHT31;55787;52.678;13.314;2024-01-30T08:53:20;2.89;86.92
68804;SHT31;55787;52.678;13.314;2024-01-30T08:55:46;3.03;85.84
68804;SHT31;55787;52.678;13.314;2024-01-30T08:58:13;3.15;85.34
68804;SHT31;55787;52.678;13.314;2024-01-30T09:00:40;3.20;84.65
68804;SHT31;55787;52.678;13.314;2024-01-30T09:03:06;3.29;84.53
68804;SHT31;55787;52.678;13.314;2024-01-30T09:05:33;3.41;83.89
68804;SHT31;55787;52.678;13.314;2024-01-30T09:08:00;3.44;83.91
68804;SHT31;55787;52.678;13.314;2024-01-30T09:10:26;3.50;84.10
68804;SHT31;55787;52.678;13.314;2024-01-30T09:12:53;3.60;83.72
68804;SHT31;55787;52.678;13.314;2024-01-30T09:15:20;3.70;83.27
68804;SHT31;55787;52.678;13.314;2024-01-30T09:17:50;3.81;82.68
68804;SHT31;55787;52.678;13.314;2024-01-30T09:20:17;3.88;83.57
68804;SHT31;55787;52.678;13.314;2024-01-30T09:22:43;3.98;83.19
68804;SHT31;55787;52.678;13.314;2024-01-30T09:25:10;4.13;82.84
68804;SHT31;55787;52.678;13.314;2024-01-30T09:27:37;4.28;81.52
68804;SHT31;55787;52.678;13.314;2024-01-30T09:30:03;4.48;80.74
68804;SHT31;55787;52.678;13.314;2024-01-30T09:32:30;4.67;80.15
68804;SHT31;55787;52.678;13.314;2024-01-30T09:34:57;4.88;79.36
68804;SHT31;55787;52.678;13.314;2024-01-30T09:37:23;5.21;78.63
68804;SHT31;55787;52.678;13.314;2024-01-30T09:39:53;5.51;78.16
68804;SHT31;55787;52.678;13.314;2024-01-30T09:42:35;5.82;76.50
68804;SHT31;55787;52.678;13.314;2024-01-30T09:45:03;5.99;75.26
68804;SHT31;55787;52.678;13.314;2024-01-30T09:47:41;6.27;74.47
68804;SHT31;55787;52.678;13.314;2024-01-30T09:50:10;6.65;73.82
68804;SHT31;55787;52.678;13.314;2024-01-30T09:52:37;6.99;73.58
68804;SHT31;55787;52.678;13.314;2024-01-30T09:55:04;7.17;71.93
68804;SHT31;55787;52.678;13.314;2024-01-30T09:57:32;7.20;71.95
68804;SHT31;55787;52.678;13.314;2024-01-30T09:59:58;7.24;71.47
68804;SHT31;55787;52.678;13.314;2024-01-30T10:02:25;7.30;71.27
68804;SHT31;55787;52.678;13.314;2024-01-30T10:04:52;7.30;70.80
68804;SHT31;55787;52.678;13.314;2024-01-30T10:07:19;7.37;70.61
68804;SHT31;55787;52.678;13.314;2024-01-30T10:09:46;7.38;70.63
68804;SHT31;55787;52.678;13.314;2024-01-30T10:12:13;7.60;70.02
68804;SHT31;55787;52.678;13.314;2024-01-30T10:14:40;7.85;68.91
68804;SHT31;55787;52.678;13.314;2024-01-30T10:17:11;7.91;68.26
68804;SHT31;55787;52.678;13.314;2024-01-30T10:19:50;7.98;67.19
68804;SHT31;55787;52.678;13.314;2024-01-30T10:22:18;7.92;69.14
68804;SHT31;55787;52.678;13.314;2024-01-30T10:24:45;8.06;66.94
68804;SHT31;55787;52.678;13.314;2024-01-30T10:27:12;7.96;67.49
68804;SHT31;55787;52.678;13.314;2024-01-30T10:29:38;7.96;68.49
68804;SHT31;55787;52.678;13.314;2024-01-30T10:32:05;8.02;66.85
68804;SHT31;55787;52.678;13.314;2024-01-30T10:34:32;7.88;66.27
68804;SHT31;55787;52.678;13.314;2024-01-30T10:37:19;7.85;66.14
68804;SHT31;55787;52.678;13.314;2024-01-30T10:39:48;7.99;66.69
68804;SHT31;55787;52.678;13.314;2024-01-30T10:42:18;7.91;67.76
68804;SHT31;55787;52.678;13.314;2024-01-30T10:45:02;7.70;65.33
68804;SHT31;55787;52.678;13.314;2024-01-30T10:47:34;7.82;67.61
68804;SHT31;55787;52.678;13.314;2024-01-30T10:50:01;7.99;65.65
68804;SHT31;55787;52.678;13.314;2024-01-30T10:52:31;8.10;65.10
68804;SHT31;55787;52.678;13.314;2024-01-30T10:54:58;7.96;65.56
68804;SHT31;55787;52.678;13.314;2024-01-30T10:57:26;7.94;64.79
68804;SHT31;55787;52.678;13.314;2024-01-30T10:59:56;8.34;64.37
68804;SHT31;55787;52.678;13.314;2024-01-30T11:02:24;8.30;63.14
68804;SHT31;55787;52.678;13.314;2024-01-30T11:04:58;8.07;63.50
68804;SHT31;55787;52.678;13.314;2024-01-30T11:07:29;8.40;63.14
68804;SHT31;55787;52.678;13.314;2024-01-30T11:10:01;8.03;63.39
68804;SHT31;55787;52.678;13.314;2024-01-30T11:12:30;8.34;64.96
68804;SHT31;55787;52.678;13.314;2024-01-30T11:15:07;8.13;63.40
68804;SHT31;55787;52.678;13.314;2024-01-30T11:20:29;8.77;63.58
68804;SHT31;55787;52.678;13.314;2024-01-30T11:22:59;8.92;63.01
68804;SHT31;55787;52.678;13.314;2024-01-30T11:25:32;8.46;62.55
68804;SHT31;55787;52.678;13.314;2024-01-30T11:28:00;8.40;62.74
68804;SHT31;55787;52.678;13.314;2024-01-30T11:30:28;8.33;63.07
68804;SHT31;55787;52.678;13.314;2024-01-30T11:35:35;8.60;62.92
68804;SHT31;55787;52.678;13.314;2024-01-30T11:38:03;8.68;62.87
68804;SHT31;55787;52.678;13.314;2024-01-30T11:40:31;8.67;62.92
68804;SHT31;55787;52.678;13.314;2024-01-30T11:43:01;8.70;63.41
68804;SHT31;55787;52.678;13.314;2024-01-30T11:45:28;8.71;62.84
68804;SHT31;55787;52.678;13.314;2024-01-30T11:47:55;8.84;63.22
68804;SHT31;55787;52.678;13.314;2024-01-30T11:50:22;8.78;62.46
68804;SHT31;55787;52.678;13.314;2024-01-30T11:52:50;8.44;63.59
68804;SHT31;55787;52.678;13.314;2024-01-30T11:55:16;8.54;63.94
68804;SHT31;55787;52.678;13.314;2024-01-30T11:57:43;8.46;63.12
68804;SHT31;55787;52.678;13.314;2024-01-30T12:00:19;8.83;64.40
68804;SHT31;55787;52.678;13.314;2024-01-30T12:02:55;8.95;63.46
68804;SHT31;55787;52.678;13.314;2024-01-30T12:05:28;9.05;62.57
68804;SHT31;55787;52.678;13.314;2024-01-30T12:07:55;9.10;62.22
68804;SHT31;55787;52.678;13.314;2024-01-30T12:10:26;9.29;62.68
68804;SHT31;55787;52.678;13.314;2024-01-30T12:12:53;8.98;62.06
68804;SHT31;55787;52.678;13.314;2024-01-30T12:15:21;9.11;61.97
68804;SHT31;55787;52.678;13.314;2024-01-30T12:17:48;8.97;62.09
68804;SHT31;55787;52.678;13.314;2024-01-30T12:20:18;9.05;62.41
68804;SHT31;55787;52.678;13.314;2024-01-30T12:22:47;8.57;62.52
68804;SHT31;55787;52.678;13.314;2024-01-30T12:25:18;8.56;62.71
68804;SHT31;55787;52.678;13.314;2024-01-30T12:27:48;9.02;62.50
68804;SHT31;55787;52.678;13.314;2024-01-30T12:30:19;9.19;62.46
68804;SHT31;55787;52.678;13.314;2024-01-30T12:32:50;9.50;60.86
68804;SHT31;55787;52.678;13.314;2024-01-30T12:35:19;9.55;61.11
68804;SHT31;55787;52.678;13.314;2024-01-30T12:37:48;9.52;61.22
68804;SHT31;55787;52.678;13.314;2024-01-30T12:40:15;9.38;60.73
68804;SHT31;55787;52.678;13.314;2024-01-30T12:42:43;9.62;61.39
68804;SHT31;55787;52.678;13.314;2024-01-30T12:45:10;9.14;61.31
68804;SHT31;55787;52.678;13.314;2024-01-30T12:47:37;9.72;61.11
68804;SHT31;55787;52.678;13.314;2024-01-30T12:50:03;9.66;60.45
68804;SHT31;55787;52.678;13.314;2024-01-30T12:52:31;9.70;60.42
68804;SHT31;55787;52.678;13.314;2024-01-30T12:54:58;9.45;60.64
68804;SHT31;55787;52.678;13.314;2024-01-30T12:57:25;9.36;61.59
68804;SHT31;55787;52.678;13.314;2024-01-30T12:59:51;10.00;60.93
68804;SHT31;55787;52.678;13.314;2024-01-30T13:02:18;10.22;59.76
68804;SHT31;55787;52.678;13.314;2024-01-30T13:04:45;10.08;60.06
68804;SHT31;55787;52.678;13.314;2024-01-30T13:07:15;10.01;60.41
68804;SHT31;55787;52.678;13.314;2024-01-30T13:09:42;9.57;61.79
68804;SHT31;55787;52.678;13.314;2024-01-30T13:12:09;9.67;62.06
68804;SHT31;55787;52.678;13.314;2024-01-30T13:14:35;9.62;61.40
68804;SHT31;55787;52.678;13.314;2024-01-30T13:17:02;9.00;62.36
68804;SHT31;55787;52.678;13.314;2024-01-30T13:19:29;9.01;64.12
68804;SHT31;55787;52.678;13.314;2024-01-30T13:21:56;9.15;63.31
68804;SHT31;55787;52.678;13.314;2024-01-30T13:24:22;9.16;63.20
68804;SHT31;55787;52.678;13.314;2024-01-30T13:26:49;8.67;63.35
68804;SHT31;55787;52.678;13.314;2024-01-30T13:29:16;8.57;64.37
68804;SHT31;55787;52.678;13.314;2024-01-30T13:31:43;8.68;64.50
68804;SHT31;55787;52.678;13.314;2024-01-30T13:34:10;8.63;64.46
68804;SHT31;55787;52.678;13.314;2024-01-30T13:36:38;8.71;65.47
68804;SHT31;55787;52.678;13.314;2024-01-30T13:39:05;8.85;64.97
68804;SHT31;55787;52.678;13.314;2024-01-30T13:41:36;8.84;64.73
68804;SHT31;55787;52.678;13.314;2024-01-30T13:44:03;8.85;65.08
68804;SHT31;55787;52.678;13.314;2024-01-30T13:46:31;8.92;64.68
68804;SHT31;55787;52.678;13.314;2024-01-30T13:48:58;8.95;63.97
68804;SHT31;55787;52.678;13.314;2024-01-30T13:51:26;8.83;64.68
68804;SHT31;55787;52.678;13.314;2024-01-30T13:53:53;8.87;65.20
68804;SHT31;55787;52.678;13.314;2024-01-30T13:56:20;8.84;64.72
68804;SHT31;55787;52.678;13.314;2024-01-30T13:58:50;8.78;64.60
68804;SHT31;55787;52.678;13.314;2024-01-30T14:01:17;8.74;64.97
68804;SHT31;55787;52.678;13.314;2024-01-30T14:03:44;8.63;65.04
68804;SHT31;55787;52.678;13.314;2024-01-30T14:06:11;8.67;65.51
68804;SHT31;55787;52.678;13.314;2024-01-30T14:08:39;8.52;65.43
68804;SHT31;55787;52.678;13.314;2024-01-30T14:11:06;8.34;65.91
68804;SHT31;55787;52.678;13.314;2024-01-30T14:13:33;8.44;66.64
68804;SHT31;55787;52.678;13.314;2024-01-30T14:16:00;8.47;67.02
68804;SHT31;55787;52.678;13.314;2024-01-30T14:18:27;8.49;66.72
68804;SHT31;55787;52.678;13.314;2024-01-30T14:20:53;8.46;67.15
68804;SHT31;55787;52.678;13.314;2024-01-30T14:23:20;8.34;66.74
68804;SHT31;55787;52.678;13.314;2024-01-30T14:25:48;8.36;66.86
68804;SHT31;55787;52.678;13.314;2024-01-30T14:28:15;8.30;68.08
68804;SHT31;55787;52.678;13.314;2024-01-30T14:30:41;8.30;68.03
68804;SHT31;55787;52.678;13.314;2024-01-30T14:33:08;8.30;67.57
68804;SHT31;55787;52.678;13.314;2024-01-30T14:35:35;8.25;67.70
68804;SHT31;55787;52.678;13.314;2024-01-30T14:38:01;8.12;67.66
68804;SHT31;55787;52.678;13.314;2024-01-30T14:40:31;8.13;68.28
68804;SHT31;55787;52.678;13.314;2024-01-30T14:42:57;8.13;68.40
68804;SHT31;55787;52.678;13.314;2024-01-30T14:45:25;8.07;68.69
68804;SHT31;55787;52.678;13.314;2024-01-30T14:47:52;8.02;69.02
68804;SHT31;55787;52.678;13.314;2024-01-30T14:50:19;7.99;69.44
68804;SHT31;55787;52.678;13.314;2024-01-30T14:52:46;7.91;69.54
68804;SHT31;55787;52.678;13.314;2024-01-30T14:55:13;7.84;69.71
68804;SHT31;55787;52.678;13.314;2024-01-30T14:57:40;7.75;70.64
68804;SHT31;55787;52.678;13.314;2024-01-30T15:00:09;7.72;70.16
68804;SHT31;55787;52.678;13.314;2024-01-30T15:02:35;7.64;70.14
68804;SHT31;55787;52.678;13.314;2024-01-30T15:05:02;7.57;70.66
68804;SHT31;55787;52.678;13.314;2024-01-30T15:07:29;7.51;71.28
68804;SHT31;55787;52.678;13.314;2024-01-30T15:10:06;7.46;71.17
68804;SHT31;55787;52.678;13.314;2024-01-30T15:12:34;7.38;71.40
68804;SHT31;55787;52.678;13.314;2024-01-30T15:15:00;7.34;71.62
68804;SHT31;55787;52.678;13.314;2024-01-30T15:17:27;7.27;71.80
68804;SHT31;55787;52.678;13.314;2024-01-30T15:19:54;7.20;72.31
68804;SHT31;55787;52.678;13.314;2024-01-30T15:22:20;7.13;72.98
68804;SHT31;55787;52.678;13.314;2024-01-30T15:24:47;7.04;73.29
68804;SHT31;55787;52.678;13.314;2024-01-30T15:27:14;6.96;74.05
68804;SHT31;55787;52.678;13.314;2024-01-30T15:29:40;6.89;73.60
68804;SHT31;55787;52.678;13.314;2024-01-30T15:32:07;6.83;73.78